sensor_id;sensor_type;location;lat;lon;timestamp;P1;durP1;ratioP1;P2;durP2;ratioP2
9304;SDS011;4690;52.422;13.486;2023-02-15T00:04:28;28.03;;;22.23;;
9304;SDS011;4690;52.422;13.486;2023-02-15T00:07:15;25.73;;;22.30;;
9304;SDS011;4690;52.422;13.486;2023-02-15T00:09:45;27.00;;;21.73;;
9304;SDS011;4690;52.422;13.486;2023-02-15T00:12:12;27.70;;;22.37;;
9304;SDS011;4690;52.422;13.486;2023-02-15T00:14:38;27.60;;;22.67;;
9304;SDS011;4690;52.422;13.486;2023-02-15T00:17:04;29.30;;;22.70;;
9304;SDS011;4690;52.422;13.486;2023-02-15T00:19:30;27.40;;;22.60;;
9304;SDS011;4690;52.422;13.486;2023-02-15T00:21:56;30.93;;;24.30;;
9304;SDS011;4690;52.422;13.486;2023-02-15T00:24:22;26.07;;;21.50;;
9304;SDS011;4690;52.422;13.486;2023-02-15T00:26:48;29.90;;;23.37;;
9304;SDS011;4690;52.422;13.486;2023-02-15T00:29:15;31.83;;;23.90;;
9304;SDS011;4690;52.422;13.486;2023-02-15T00:31:43;31.47;;;24.60;;
9304;SDS011;4690;52.422;13.486;2023-02-15T00:34:14;28.53;;;23.17;;
9304;SDS011;4690;52.422;13.486;2023-02-15T00:36:46;30.87;;;24.70;;
9304;SDS011;4690;52.422;13.486;2023-02-15T00:39:12;29.00;;;23.97;;
9304;SDS011;4690;52.422;13.486;2023-02-15T00:41:38;30.23;;;24.30;;
9304;SDS011;4690;52.422;13.486;2023-02-15T00:44:05;30.10;;;24.47;;
9304;SDS011;4690;52.422;13.486;2023-02-15T00:46:31;30.80;;;24.13;;
9304;SDS011;4690;52.422;13.486;2023-02-15T00:48:57;32.77;;;24.13;;
9304;SDS011;4690;52.422;13.486;2023-02-15T00:51:23;28.37;;;23.60;;
9304;SDS011;4690;52.422;13.486;2023-02-15T00:53:50;30.17;;;24.23;;
9304;SDS011;4690;52.422;13.486;2023-02-15T00:56:16;29.30;;;23.80;;
9304;SDS011;4690;52.422;13.486;2023-02-15T00:58:42;32.13;;;25.27;;
9304;SDS011;4690;52.422;13.486;2023-02-15T01:01:10;30.53;;;24.73;;
9304;SDS011;4690;52.422;13.486;2023-02-15T01:03:39;27.67;;;23.50;;
9304;SDS011;4690;52.422;13.486;2023-02-15T01:06:06;29.67;;;24.10;;
9304;SDS011;4690;52.422;13.486;2023-02-15T01:08:34;31.80;;;25.20;;
9304;SDS011;4690;52.422;13.486;2023-02-15T01:11:07;32.27;;;25.30;;
9304;SDS011;4690;52.422;13.486;2023-02-15T01:13:40;32.00;;;25.50;;
9304;SDS011;4690;52.422;13.486;2023-02-15T01:16:07;30.10;;;24.33;;
9304;SDS011;4690;52.422;13.486;2023-02-15T01:18:33;32.73;;;25.93;;
9304;SDS011;4690;52.422;13.486;2023-02-15T01:21:00;30.53;;;25.57;;
9304;SDS011;4690;52.422;13.486;2023-02-15T01:23:44;31.90;;;26.43;;
9304;SDS011;4690;52.422;13.486;2023-02-15T01:26:11;29.17;;;24.23;;
9304;SDS011;4690;52.422;13.486;2023-02-15T01:28:37;31.90;;;25.70;;
9304;SDS011;4690;52.422;13.486;2023-02-15T01:31:10;30.50;;;24.37;;
9304;SDS011;4690;52.422;13.486;2023-02-15T01:33:40;31.17;;;25.63;;
9304;SDS011;4690;52.422;13.486;2023-02-15T01:36:06;32.07;;;26.03;;
9304;SDS011;4690;52.422;13.486;2023-02-15T01:38:32;33.47;;;25.47;;
9304;SDS011;4690;52.422;13.486;2023-02-15T01:40:59;31.67;;;26.60;;
9304;SDS011;4690;52.422;13.486;2023-02-15T01:43:46;32.33;;;25.97;;
9304;SDS011;4690;52.422;13.486;2023-02-15T01:46:43;32.27;;;25.37;;
9304;SDS011;4690;52.422;13.486;2023-02-15T01:49:17;34.53;;;27.07;;
9304;SDS011;4690;52.422;13.486;2023-02-15T01:51:50;31.73;;;26.33;;
9304;SDS011;4690;52.422;13.486;2023-02-15T01:54:22;34.77;;;27.10;;
9304;SDS011;4690;52.422;13.486;2023-02-15T01:56:54;32.07;;;26.20;;
9304;SDS011;4690;52.422;13.486;2023-02-15T01:59:28;31.37;;;26.17;;
9304;SDS011;4690;52.422;13.486;2023-02-15T02:01:57;36.10;;;27.33;;
9304;SDS011;4690;52.422;13.486;2023-02-15T02:04:40;37.47;;;28.07;;
9304;SDS011;4690;52.422;13.486;2023-02-15T02:07:13;35.30;;;27.23;;
9304;SDS011;4690;52.422;13.486;2023-02-15T02:09:44;35.57;;;28.17;;
9304;SDS011;4690;52.422;13.486;2023-02-15T02:12:11;37.00;;;27.90;;
9304;SDS011;4690;52.422;13.486;2023-02-15T02:14:37;39.37;;;29.40;;
9304;SDS011;4690;52.422;13.486;2023-02-15T02:35:11;44.53;;;32.73;;
9304;SDS011;4690;52.422;13.486;2023-02-15T02:46:53;45.70;;;35.17;;
9304;SDS011;4690;52.422;13.486;2023-02-15T02:49:33;55.53;;;36.93;;
9304;SDS011;4690;52.422;13.486;2023-02-15T02:52:06;52.17;;;36.80;;
9304;SDS011;4690;52.422;13.486;2023-02-15T02:55:25;53.43;;;37.60;;
9304;SDS011;4690;52.422;13.486;2023-02-15T02:58:06;57.40;;;38.70;;
9304;SDS011;4690;52.422;13.486;2023-02-15T03:00:48;61.03;;;38.33;;
9304;SDS011;4690;52.422;13.486;2023-02-15T03:03:50;59.90;;;38.53;;
9304;SDS011;4690;52.422;13.486;2023-02-15T03:06:32;58.97;;;40.20;;
9304;SDS011;4690;52.422;13.486;2023-02-15T03:09:06;59.23;;;39.10;;
9304;SDS011;4690;52.422;13.486;2023-02-15T03:11:41;59.93;;;39.20;;
9304;SDS011;4690;52.422;13.486;2023-02-15T03:14:09;57.50;;;38.67;;
9304;SDS011;4690;52.422;13.486;2023-02-15T03:16:39;57.27;;;38.23;;
9304;SDS011;4690;52.422;13.486;2023-02-15T03:22:05;59.87;;;38.30;;
9304;SDS011;4690;52.422;13.486;2023-02-15T03:24:50;59.67;;;38.70;;
9304;SDS011;4690;52.422;13.486;2023-02-15T03:27:46;58.03;;;38.17;;
9304;SDS011;4690;52.422;13.486;2023-02-15T03:30:26;59.10;;;38.27;;
9304;SDS011;4690;52.422;13.486;2023-02-15T03:32:56;54.87;;;37.43;;
9304;SDS011;4690;52.422;13.486;2023-02-15T03:35:26;59.17;;;37.57;;
9304;SDS011;4690;52.422;13.486;2023-02-15T03:38:26;59.47;;;38.03;;
9304;SDS011;4690;52.422;13.486;2023-02-15T03:41:01;56.67;;;38.40;;
9304;SDS011;4690;52.422;13.486;2023-02-15T03:43:49;58.30;;;38.60;;
9304;SDS011;4690;52.422;13.486;2023-02-15T03:46:47;56.53;;;36.17;;
9304;SDS011;4690;52.422;13.486;2023-02-15T03:49:36;55.37;;;37.63;;
9304;SDS011;4690;52.422;13.486;2023-02-15T03:52:13;56.83;;;37.00;;
9304;SDS011;4690;52.422;13.486;2023-02-15T03:54:42;55.37;;;37.00;;
9304;SDS011;4690;52.422;13.486;2023-02-15T03:57:16;56.10;;;38.10;;
9304;SDS011;4690;52.422;13.486;2023-02-15T04:03:17;50.83;;;34.73;;
9304;SDS011;4690;52.422;13.486;2023-02-15T04:05:53;56.07;;;36.10;;
9304;SDS011;4690;52.422;13.486;2023-02-15T04:08:18;50.30;;;34.83;;
9304;SDS011;4690;52.422;13.486;2023-02-15T04:10:44;53.70;;;35.97;;
9304;SDS011;4690;52.422;13.486;2023-02-15T04:13:24;51.87;;;36.00;;
9304;SDS011;4690;52.422;13.486;2023-02-15T04:15:56;56.17;;;36.93;;
9304;SDS011;4690;52.422;13.486;2023-02-15T04:18:38;53.57;;;35.60;;
9304;SDS011;4690;52.422;13.486;2023-02-15T04:21:27;58.30;;;38.00;;
9304;SDS011;4690;52.422;13.486;2023-02-15T04:24:14;56.23;;;35.83;;
9304;SDS011;4690;52.422;13.486;2023-02-15T04:26:59;55.97;;;36.53;;
9304;SDS011;4690;52.422;13.486;2023-02-15T04:29:27;58.00;;;37.97;;
9304;SDS011;4690;52.422;13.486;2023-02-15T04:31:53;56.37;;;36.97;;
9304;SDS011;4690;52.422;13.486;2023-02-15T04:34:21;55.47;;;35.33;;
9304;SDS011;4690;52.422;13.486;2023-02-15T04:36:48;57.50;;;36.83;;
9304;SDS011;4690;52.422;13.486;2023-02-15T04:39:15;54.63;;;36.57;;
9304;SDS011;4690;52.422;13.486;2023-02-15T04:41:42;59.77;;;36.83;;
9304;SDS011;4690;52.422;13.486;2023-02-15T04:44:09;57.40;;;36.80;;
9304;SDS011;4690;52.422;13.486;2023-02-15T04:46:34;56.13;;;37.37;;
9304;SDS011;4690;52.422;13.486;2023-02-15T04:49:00;53.63;;;35.77;;
9304;SDS011;4690;52.422;13.486;2023-02-15T04:51:26;64.17;;;39.73;;
9304;SDS011;4690;52.422;13.486;2023-02-15T04:53:52;54.17;;;36.17;;
9304;SDS011;4690;52.422;13.486;2023-02-15T04:56:18;50.93;;;35.27;;
9304;SDS011;4690;52.422;13.486;2023-02-15T04:58:45;54.50;;;35.33;;
9304;SDS011;4690;52.422;13.486;2023-02-15T05:01:11;53.60;;;34.97;;
9304;SDS011;4690;52.422;13.486;2023-02-15T05:03:37;50.97;;;35.07;;
9304;SDS011;4690;52.422;13.486;2023-02-15T05:06:04;51.93;;;35.07;;
9304;SDS011;4690;52.422;13.486;2023-02-15T05:08:30;56.57;;;36.00;;
9304;SDS011;4690;52.422;13.486;2023-02-15T05:10:56;65.97;;;39.33;;
9304;SDS011;4690;52.422;13.486;2023-02-15T05:13:24;64.17;;;39.93;;
9304;SDS011;4690;52.422;13.486;2023-02-15T05:15:53;65.53;;;38.50;;
9304;SDS011;4690;52.422;13.486;2023-02-15T05:18:20;65.33;;;39.23;;
9304;SDS011;4690;52.422;13.486;2023-02-15T05:20:47;63.33;;;38.87;;
9304;SDS011;4690;52.422;13.486;2023-02-15T05:23:13;71.53;;;41.73;;
9304;SDS011;4690;52.422;13.486;2023-02-15T05:25:39;102.73;;;41.17;;
9304;SDS011;4690;52.422;13.486;2023-02-15T05:28:24;59.20;;;38.30;;
9304;SDS011;4690;52.422;13.486;2023-02-15T05:31:14;94.70;;;40.03;;
9304;SDS011;4690;52.422;13.486;2023-02-15T05:33:42;77.10;;;41.10;;
9304;SDS011;4690;52.422;13.486;2023-02-15T05:36:08;73.17;;;41.00;;
9304;SDS011;4690;52.422;13.486;2023-02-15T05:38:35;77.97;;;39.90;;
9304;SDS011;4690;52.422;13.486;2023-02-15T05:41:02;260.47;;;44.37;;
9304;SDS011;4690;52.422;13.486;2023-02-15T05:43:30;70.23;;;38.30;;
9304;SDS011;4690;52.422;13.486;2023-02-15T05:45:56;307.67;;;45.27;;
9304;SDS011;4690;52.422;13.486;2023-02-15T05:48:23;281.70;;;44.33;;
9304;SDS011;4690;52.422;13.486;2023-02-15T05:51:01;97.03;;;38.93;;
9304;SDS011;4690;52.422;13.486;2023-02-15T05:53:27;76.90;;;37.97;;
9304;SDS011;4690;52.422;13.486;2023-02-15T05:55:55;166.53;;;42.47;;
9304;SDS011;4690;52.422;13.486;2023-02-15T05:58:34;83.87;;;39.90;;
9304;SDS011;4690;52.422;13.486;2023-02-15T06:01:09;69.03;;;39.70;;
9304;SDS011;4690;52.422;13.486;2023-02-15T06:03:37;190.27;;;41.40;;
9304;SDS011;4690;52.422;13.486;2023-02-15T06:06:03;94.70;;;40.10;;
9304;SDS011;4690;52.422;13.486;2023-02-15T06:08:29;76.00;;;37.47;;
9304;SDS011;4690;52.422;13.486;2023-02-15T06:10:56;140.23;;;37.60;;
9304;SDS011;4690;52.422;13.486;2023-02-15T06:13:22;49.73;;;34.20;;
9304;SDS011;4690;52.422;13.486;2023-02-15T06:15:48;120.77;;;37.67;;
9304;SDS011;4690;52.422;13.486;2023-02-15T06:18:13;231.83;;;40.97;;
9304;SDS011;4690;52.422;13.486;2023-02-15T06:20:39;73.30;;;38.83;;
9304;SDS011;4690;52.422;13.486;2023-02-15T06:23:05;176.20;;;40.23;;
9304;SDS011;4690;52.422;13.486;2023-02-15T06:25:31;68.50;;;39.03;;
9304;SDS011;4690;52.422;13.486;2023-02-15T06:27:56;52.40;;;35.20;;
9304;SDS011;4690;52.422;13.486;2023-02-15T06:30:22;59.27;;;35.40;;
9304;SDS011;4690;52.422;13.486;2023-02-15T06:32:48;113.10;;;35.07;;
9304;SDS011;4690;52.422;13.486;2023-02-15T06:35:13;126.50;;;37.53;;
9304;SDS011;4690;52.422;13.486;2023-02-15T06:37:39;66.97;;;32.90;;
9304;SDS011;4690;52.422;13.486;2023-02-15T06:40:05;248.73;;;38.57;;
9304;SDS011;4690;52.422;13.486;2023-02-15T06:42:33;53.90;;;34.87;;
9304;SDS011;4690;52.422;13.486;2023-02-15T06:44:58;97.37;;;36.93;;
9304;SDS011;4690;52.422;13.486;2023-02-15T06:47:25;105.83;;;35.23;;
9304;SDS011;4690;52.422;13.486;2023-02-15T06:49:51;111.23;;;36.30;;
9304;SDS011;4690;52.422;13.486;2023-02-15T06:52:16;86.87;;;36.13;;
9304;SDS011;4690;52.422;13.486;2023-02-15T06:54:42;127.27;;;39.17;;
9304;SDS011;4690;52.422;13.486;2023-02-15T06:57:08;146.40;;;38.83;;
9304;SDS011;4690;52.422;13.486;2023-02-15T06:59:34;170.80;;;38.27;;
9304;SDS011;4690;52.422;13.486;2023-02-15T07:02:00;93.73;;;38.77;;
9304;SDS011;4690;52.422;13.486;2023-02-15T07:04:26;111.03;;;38.00;;
9304;SDS011;4690;52.422;13.486;2023-02-15T07:06:53;158.63;;;38.60;;
9304;SDS011;4690;52.422;13.486;2023-02-15T07:09:20;193.00;;;37.53;;
9304;SDS011;4690;52.422;13.486;2023-02-15T07:11:46;128.43;;;35.27;;
9304;SDS011;4690;52.422;13.486;2023-02-15T07:14:30;98.23;;;35.07;;
9304;SDS011;4690;52.422;13.486;2023-02-15T07:16:57;61.90;;;30.73;;
9304;SDS011;4690;52.422;13.486;2023-02-15T07:19:22;79.07;;;33.43;;
9304;SDS011;4690;52.422;13.486;2023-02-15T07:21:48;71.13;;;33.63;;
9304;SDS011;4690;52.422;13.486;2023-02-15T07:24:14;255.63;;;40.57;;
9304;SDS011;4690;52.422;13.486;2023-02-15T07:26:40;130.47;;;35.37;;
9304;SDS011;4690;52.422;13.486;2023-02-15T07:29:06;77.70;;;33.50;;
9304;SDS011;4690;52.422;13.486;2023-02-15T07:31:31;162.83;;;36.90;;
9304;SDS011;4690;52.422;13.486;2023-02-15T07:33:57;82.07;;;30.77;;
9304;SDS011;4690;52.422;13.486;2023-02-15T07:36:23;48.53;;;33.73;;
9304;SDS011;4690;52.422;13.486;2023-02-15T07:38:49;63.83;;;32.23;;
9304;SDS011;4690;52.422;13.486;2023-02-15T07:41:14;207.70;;;34.73;;
9304;SDS011;4690;52.422;13.486;2023-02-15T07:43:42;127.77;;;33.83;;
9304;SDS011;4690;52.422;13.486;2023-02-15T07:46:10;81.83;;;31.83;;
9304;SDS011;4690;52.422;13.486;2023-02-15T07:48:40;206.00;;;36.10;;
9304;SDS011;4690;52.422;13.486;2023-02-15T07:51:08;57.97;;;30.33;;
9304;SDS011;4690;52.422;13.486;2023-02-15T07:53:36;82.10;;;32.70;;
9304;SDS011;4690;52.422;13.486;2023-02-15T07:56:05;78.07;;;31.37;;
9304;SDS011;4690;52.422;13.486;2023-02-15T07:58:35;58.90;;;32.13;;
9304;SDS011;4690;52.422;13.486;2023-02-15T08:01:20;184.57;;;35.83;;
9304;SDS011;4690;52.422;13.486;2023-02-15T08:03:53;122.77;;;35.37;;
9304;SDS011;4690;52.422;13.486;2023-02-15T08:06:20;145.87;;;34.53;;
9304;SDS011;4690;52.422;13.486;2023-02-15T08:08:48;72.87;;;32.50;;
9304;SDS011;4690;52.422;13.486;2023-02-15T08:11:16;145.97;;;33.83;;
9304;SDS011;4690;52.422;13.486;2023-02-15T08:13:54;105.93;;;34.27;;
9304;SDS011;4690;52.422;13.486;2023-02-15T08:21:48;55.27;;;32.43;;
9304;SDS011;4690;52.422;13.486;2023-02-15T08:24:22;76.03;;;32.67;;
9304;SDS011;4690;52.422;13.486;2023-02-15T08:26:51;83.77;;;32.57;;
9304;SDS011;4690;52.422;13.486;2023-02-15T08:29:18;146.23;;;33.40;;
9304;SDS011;4690;52.422;13.486;2023-02-15T08:31:47;45.40;;;30.60;;
9304;SDS011;4690;52.422;13.486;2023-02-15T08:34:16;56.17;;;28.93;;
9304;SDS011;4690;52.422;13.486;2023-02-15T08:36:43;72.47;;;29.03;;
9304;SDS011;4690;52.422;13.486;2023-02-15T08:39:10;58.23;;;28.77;;
9304;SDS011;4690;52.422;13.486;2023-02-15T08:41:38;75.40;;;29.33;;
9304;SDS011;4690;52.422;13.486;2023-02-15T08:44:06;54.33;;;28.53;;
9304;SDS011;4690;52.422;13.486;2023-02-15T08:46:35;53.93;;;28.90;;
9304;SDS011;4690;52.422;13.486;2023-02-15T08:49:07;63.97;;;29.43;;
9304;SDS011;4690;52.422;13.486;2023-02-15T08:51:36;52.27;;;28.47;;
9304;SDS011;4690;52.422;13.486;2023-02-15T08:54:04;43.83;;;27.97;;
9304;SDS011;4690;52.422;13.486;2023-02-15T08:56:38;39.40;;;27.60;;
9304;SDS011;4690;52.422;13.486;2023-02-15T08:59:06;106.40;;;29.67;;
9304;SDS011;4690;52.422;13.486;2023-02-15T09:01:41;134.40;;;28.37;;
9304;SDS011;4690;52.422;13.486;2023-02-15T09:04:07;38.37;;;27.73;;
9304;SDS011;4690;52.422;13.486;2023-02-15T09:06:34;117.00;;;29.37;;
9304;SDS011;4690;52.422;13.486;2023-02-15T09:09:02;42.40;;;27.07;;
9304;SDS011;4690;52.422;13.486;2023-02-15T09:11:35;89.07;;;27.70;;
9304;SDS011;4690;52.422;13.486;2023-02-15T09:14:06;104.77;;;29.47;;
9304;SDS011;4690;52.422;13.486;2023-02-15T09:16:36;70.03;;;27.70;;
9304;SDS011;4690;52.422;13.486;2023-02-15T09:19:03;67.10;;;29.07;;
9304;SDS011;4690;52.422;13.486;2023-02-15T09:21:31;65.53;;;30.10;;
9304;SDS011;4690;52.422;13.486;2023-02-15T09:24:01;54.63;;;29.80;;
9304;SDS011;4690;52.422;13.486;2023-02-15T09:26:31;61.70;;;29.90;;
9304;SDS011;4690;52.422;13.486;2023-02-15T09:29:01;49.37;;;31.10;;
9304;SDS011;4690;52.422;13.486;2023-02-15T09:31:47;54.60;;;30.03;;
9304;SDS011;4690;52.422;13.486;2023-02-15T09:34:16;44.03;;;29.40;;
9304;SDS011;4690;52.422;13.486;2023-02-15T09:36:45;40.57;;;27.23;;
9304;SDS011;4690;52.422;13.486;2023-02-15T09:39:12;44.57;;;29.57;;
9304;SDS011;4690;52.422;13.486;2023-02-15T09:45:16;40.60;;;27.63;;
9304;SDS011;4690;52.422;13.486;2023-02-15T09:56:39;41.33;;;28.03;;
9304;SDS011;4690;52.422;13.486;2023-02-15T10:02:06;40.43;;;28.23;;
9304;SDS011;4690;52.422;13.486;2023-02-15T10:15:55;34.83;;;24.97;;
9304;SDS011;4690;52.422;13.486;2023-02-15T10:21:30;36.53;;;27.30;;
9304;SDS011;4690;52.422;13.486;2023-02-15T10:24:58;38.47;;;26.97;;
9304;SDS011;4690;52.422;13.486;2023-02-15T10:27:15;39.33;;;27.77;;
9304;SDS011;4690;52.422;13.486;2023-02-15T10:29:52;40.17;;;27.17;;
9304;SDS011;4690;52.422;13.486;2023-02-15T10:33:04;37.97;;;25.73;;
9304;SDS011;4690;52.422;13.486;2023-02-15T10:39:00;38.10;;;25.90;;
9304;SDS011;4690;52.422;13.486;2023-02-15T10:47:57;34.07;;;25.30;;
9304;SDS011;4690;52.422;13.486;2023-02-15T10:50:56;33.50;;;24.23;;
9304;SDS011;4690;52.422;13.486;2023-02-15T10:53:36;37.67;;;26.20;;
9304;SDS011;4690;52.422;13.486;2023-02-15T11:03:04;36.07;;;26.10;;
9304;SDS011;4690;52.422;13.486;2023-02-15T11:06:01;30.87;;;23.53;;
9304;SDS011;4690;52.422;13.486;2023-02-15T11:08:42;30.60;;;23.87;;
9304;SDS011;4690;52.422;13.486;2023-02-15T11:11:15;32.00;;;25.43;;
9304;SDS011;4690;52.422;13.486;2023-02-15T11:14:10;34.00;;;24.80;;
9304;SDS011;4690;52.422;13.486;2023-02-15T11:17:09;32.97;;;24.23;;
9304;SDS011;4690;52.422;13.486;2023-02-15T11:19:51;32.77;;;24.00;;
9304;SDS011;4690;52.422;13.486;2023-02-15T11:22:30;31.27;;;22.80;;
9304;SDS011;4690;52.422;13.486;2023-02-15T11:24:58;30.90;;;24.20;;
9304;SDS011;4690;52.422;13.486;2023-02-15T11:27:28;30.83;;;23.23;;
9304;SDS011;4690;52.422;13.486;2023-02-15T11:30:06;32.53;;;24.27;;
9304;SDS011;4690;52.422;13.486;2023-02-15T11:32:58;32.50;;;24.63;;
9304;SDS011;4690;52.422;13.486;2023-02-15T11:40:47;29.23;;;22.60;;
9304;SDS011;4690;52.422;13.486;2023-02-15T11:46:12;29.90;;;22.77;;
9304;SDS011;4690;52.422;13.486;2023-02-15T11:48:39;29.50;;;23.17;;
9304;SDS011;4690;52.422;13.486;2023-02-15T11:51:20;28.60;;;22.10;;
9304;SDS011;4690;52.422;13.486;2023-02-15T11:53:48;29.57;;;22.20;;
9304;SDS011;4690;52.422;13.486;2023-02-15T11:56:19;29.00;;;21.97;;
9304;SDS011;4690;52.422;13.486;2023-02-15T11:58:52;27.23;;;21.73;;
9304;SDS011;4690;52.422;13.486;2023-02-15T12:01:44;27.00;;;21.60;;
9304;SDS011;4690;52.422;13.486;2023-02-15T12:04:24;25.03;;;20.87;;
9304;SDS011;4690;52.422;13.486;2023-02-15T12:10:02;26.37;;;20.77;;
9304;SDS011;4690;52.422;13.486;2023-02-15T12:12:35;23.80;;;19.90;;
9304;SDS011;4690;52.422;13.486;2023-02-15T12:15:02;25.53;;;20.83;;
9304;SDS011;4690;52.422;13.486;2023-02-15T12:17:34;27.57;;;21.47;;
9304;SDS011;4690;52.422;13.486;2023-02-15T12:22:49;24.80;;;21.00;;
9304;SDS011;4690;52.422;13.486;2023-02-15T12:25:27;25.07;;;19.77;;
9304;SDS011;4690;52.422;13.486;2023-02-15T12:30:57;25.45;;;20.55;;
9304;SDS011;4690;52.422;13.486;2023-02-15T12:36:01;22.95;;;19.73;;
9304;SDS011;4690;52.422;13.486;2023-02-15T12:39:02;22.17;;;19.00;;
9304;SDS011;4690;52.422;13.486;2023-02-15T12:41:57;25.25;;;20.33;;
9304;SDS011;4690;52.422;13.486;2023-02-15T12:44:28;23.33;;;19.98;;
9304;SDS011;4690;52.422;13.486;2023-02-15T12:49:38;23.85;;;20.52;;
9304;SDS011;4690;52.422;13.486;2023-02-15T12:52:05;21.80;;;18.35;;
9304;SDS011;4690;52.422;13.486;2023-02-15T12:54:45;22.63;;;19.25;;
9304;SDS011;4690;52.422;13.486;2023-02-15T13:00:44;24.23;;;19.25;;
9304;SDS011;4690;52.422;13.486;2023-02-15T13:02:49;23.30;;;17.83;;
9304;SDS011;4690;52.422;13.486;2023-02-15T13:10:51;24.38;;;19.55;;
9304;SDS011;4690;52.422;13.486;2023-02-15T13:13:36;18.83;;;16.67;;
9304;SDS011;4690;52.422;13.486;2023-02-15T13:16:32;18.20;;;15.73;;
9304;SDS011;4690;52.422;13.486;2023-02-15T13:19:04;22.90;;;16.90;;
9304;SDS011;4690;52.422;13.486;2023-02-15T13:21:46;21.20;;;17.27;;
9304;SDS011;4690;52.422;13.486;2023-02-15T13:24:23;19.48;;;17.35;;
9304;SDS011;4690;52.422;13.486;2023-02-15T13:26:55;19.13;;;16.33;;
9304;SDS011;4690;52.422;13.486;2023-02-15T13:29:30;18.70;;;16.70;;
9304;SDS011;4690;52.422;13.486;2023-02-15T13:32:23;20.80;;;17.42;;
9304;SDS011;4690;52.422;13.486;2023-02-15T13:34:57;20.33;;;16.95;;
9304;SDS011;4690;52.422;13.486;2023-02-15T13:37:36;22.08;;;18.15;;
9304;SDS011;4690;52.422;13.486;2023-02-15T13:40:13;19.85;;;16.92;;
9304;SDS011;4690;52.422;13.486;2023-02-15T13:45:45;20.85;;;17.15;;
9304;SDS011;4690;52.422;13.486;2023-02-15T13:52:38;24.42;;;17.60;;
9304;SDS011;4690;52.422;13.486;2023-02-15T14:00:35;18.70;;;15.93;;
9304;SDS011;4690;52.422;13.486;2023-02-15T14:03:46;22.83;;;15.98;;
9304;SDS011;4690;52.422;13.486;2023-02-15T14:09:21;19.23;;;16.07;;
9304;SDS011;4690;52.422;13.486;2023-02-15T14:32:30;20.73;;;15.82;;
9304;SDS011;4690;52.422;13.486;2023-02-15T14:35:13;17.45;;;15.05;;
9304;SDS011;4690;52.422;13.486;2023-02-15T14:43:34;18.50;;;15.32;;
9304;SDS011;4690;52.422;13.486;2023-02-15T14:49:27;15.50;;;12.63;;
9304;SDS011;4690;52.422;13.486;2023-02-15T14:52:04;15.25;;;13.55;;
9304;SDS011;4690;52.422;13.486;2023-02-15T15:02:50;14.63;;;12.57;;
9304;SDS011;4690;52.422;13.486;2023-02-15T15:05:46;16.48;;;13.77;;
9304;SDS011;4690;52.422;13.486;2023-02-15T15:08:22;15.00;;;12.80;;
9304;SDS011;4690;52.422;13.486;2023-02-15T15:11:36;20.43;;;13.43;;
9304;SDS011;4690;52.422;13.486;2023-02-15T15:13:57;16.47;;;12.57;;
9304;SDS011;4690;52.422;13.486;2023-02-15T15:19:00;16.67;;;12.27;;
9304;SDS011;4690;52.422;13.486;2023-02-15T15:24:59;15.53;;;12.67;;
9304;SDS011;4690;52.422;13.486;2023-02-15T15:32:38;12.90;;;10.50;;
9304;SDS011;4690;52.422;13.486;2023-02-15T15:35:37;12.60;;;10.70;;
9304;SDS011;4690;52.422;13.486;2023-02-15T15:51:44;15.87;;;11.57;;
9304;SDS011;4690;52.422;13.486;2023-02-15T15:53:55;13.47;;;10.43;;
9304;SDS011;4690;52.422;13.486;2023-02-15T15:56:26;11.97;;;10.17;;
9304;SDS011;4690;52.422;13.486;2023-02-15T15:59:00;12.97;;;11.17;;
9304;SDS011;4690;52.422;13.486;2023-02-15T16:01:35;13.10;;;10.27;;
9304;SDS011;4690;52.422;13.486;2023-02-15T16:04:21;14.40;;;10.53;;
9304;SDS011;4690;52.422;13.486;2023-02-15T16:06:57;12.60;;;10.53;;
9304;SDS011;4690;52.422;13.486;2023-02-15T16:09:38;12.27;;;10.67;;
9304;SDS011;4690;52.422;13.486;2023-02-15T16:12:04;12.63;;;10.77;;
9304;SDS011;4690;52.422;13.486;2023-02-15T16:14:40;15.57;;;12.40;;
9304;SDS011;4690;52.422;13.486;2023-02-15T16:17:19;16.07;;;12.73;;
9304;SDS011;4690;52.422;13.486;2023-02-15T16:19:49;14.77;;;12.23;;
9304;SDS011;4690;52.422;13.486;2023-02-15T16:22:21;14.20;;;11.83;;
9304;SDS011;4690;52.422;13.486;2023-02-15T16:28:06;14.80;;;12.40;;
9304;SDS011;4690;52.422;13.486;2023-02-15T16:30:36;16.10;;;13.50;;
9304;SDS011;4690;52.422;13.486;2023-02-15T16:36:02;16.00;;;13.13;;
9304;SDS011;4690;52.422;13.486;2023-02-15T16:41:07;17.00;;;13.20;;
9304;SDS011;4690;52.422;13.486;2023-02-15T16:43:38;14.53;;;12.30;;
9304;SDS011;4690;52.422;13.486;2023-02-15T16:46:10;16.10;;;12.20;;
9304;SDS011;4690;52.422;13.486;2023-02-15T16:48:45;15.70;;;13.03;;
9304;SDS011;4690;52.422;13.486;2023-02-15T16:51:20;15.37;;;12.80;;
9304;SDS011;4690;52.422;13.486;2023-02-15T16:53:51;16.40;;;12.60;;
9304;SDS011;4690;52.422;13.486;2023-02-15T16:56:29;16.87;;;13.13;;
9304;SDS011;4690;52.422;13.486;2023-02-15T16:58:57;17.90;;;14.97;;
9304;SDS011;4690;52.422;13.486;2023-02-15T17:01:29;17.20;;;14.07;;
9304;SDS011;4690;52.422;13.486;2023-02-15T17:04:39;20.37;;;16.57;;
9304;SDS011;4690;52.422;13.486;2023-02-15T17:07:20;20.53;;;16.20;;
9304;SDS011;4690;52.422;13.486;2023-02-15T17:09:48;22.73;;;17.17;;
9304;SDS011;4690;52.422;13.486;2023-02-15T17:20:46;19.20;;;16.90;;
9304;SDS011;4690;52.422;13.486;2023-02-15T17:23:22;17.90;;;15.73;;
9304;SDS011;4690;52.422;13.486;2023-02-15T17:26:29;19.80;;;15.97;;
9304;SDS011;4690;52.422;13.486;2023-02-15T17:28:59;23.57;;;18.40;;
9304;SDS011;4690;52.422;13.486;2023-02-15T17:31:55;22.97;;;18.93;;
9304;SDS011;4690;52.422;13.486;2023-02-15T17:37:29;22.70;;;17.40;;
9304;SDS011;4690;52.422;13.486;2023-02-15T17:40:27;26.73;;;18.50;;
9304;SDS011;4690;52.422;13.486;2023-02-15T17:42:56;24.33;;;18.97;;
9304;SDS011;4690;52.422;13.486;2023-02-15T17:45:22;22.13;;;18.00;;
9304;SDS011;4690;52.422;13.486;2023-02-15T17:48:01;19.00;;;16.33;;
9304;SDS011;4690;52.422;13.486;2023-02-15T17:50:30;23.57;;;18.27;;
9304;SDS011;4690;52.422;13.486;2023-02-15T17:52:59;22.93;;;18.13;;
9304;SDS011;4690;52.422;13.486;2023-02-15T17:55:28;26.13;;;20.00;;
9304;SDS011;4690;52.422;13.486;2023-02-15T17:58:01;24.57;;;19.67;;
9304;SDS011;4690;52.422;13.486;2023-02-15T18:00:30;24.87;;;19.87;;
9304;SDS011;4690;52.422;13.486;2023-02-15T18:03:19;22.60;;;19.20;;
9304;SDS011;4690;52.422;13.486;2023-02-15T18:06:04;23.97;;;18.53;;
9304;SDS011;4690;52.422;13.486;2023-02-15T18:08:48;24.73;;;20.10;;
9304;SDS011;4690;52.422;13.486;2023-02-15T18:11:33;22.83;;;20.00;;
9304;SDS011;4690;52.422;13.486;2023-02-15T18:14:12;24.47;;;19.93;;
9304;SDS011;4690;52.422;13.486;2023-02-15T18:16:39;25.07;;;20.07;;
9304;SDS011;4690;52.422;13.486;2023-02-15T18:19:12;28.60;;;22.17;;
9304;SDS011;4690;52.422;13.486;2023-02-15T18:21:40;24.97;;;22.10;;
9304;SDS011;4690;52.422;13.486;2023-02-15T18:24:12;25.97;;;21.93;;
9304;SDS011;4690;52.422;13.486;2023-02-15T18:26:41;24.87;;;21.50;;
9304;SDS011;4690;52.422;13.486;2023-02-15T18:29:07;25.80;;;21.60;;
9304;SDS011;4690;52.422;13.486;2023-02-15T18:31:33;29.37;;;21.87;;
9304;SDS011;4690;52.422;13.486;2023-02-15T18:33:59;26.07;;;22.20;;
9304;SDS011;4690;52.422;13.486;2023-02-15T18:36:39;26.47;;;21.93;;
9304;SDS011;4690;52.422;13.486;2023-02-15T18:39:51;29.60;;;23.63;;
9304;SDS011;4690;52.422;13.486;2023-02-15T18:42:10;33.30;;;25.83;;
9304;SDS011;4690;52.422;13.486;2023-02-15T18:44:52;29.57;;;24.07;;
9304;SDS011;4690;52.422;13.486;2023-02-15T18:47:22;27.27;;;23.00;;